createdAt,value
2018-06-11T00:02:02.939Z,18.10
2018-06-11T00:07:01.526Z,18.00
2018-06-11T00:09:31.044Z,18.00
2018-06-11T00:12:00.453Z,18.00
2018-06-11T00:14:29.933Z,18.00
2018-06-11T00:16:59.503Z,17.90
2018-06-11T00:19:29.107Z,17.90
2018-06-11T00:21:58.551Z,17.90
2018-06-11T00:24:27.964Z,17.90
2018-06-11T00:26:57.619Z,17.90
2018-06-11T00:29:27.164Z,17.90
2018-06-11T00:31:56.612Z,17.90
2018-06-11T00:34:26.046Z,18.00
2018-06-11T00:36:56.213Z,18.00
2018-06-11T00:39:25.776Z,18.00
2018-06-11T00:41:55.219Z,17.90
2018-06-11T00:44:24.684Z,18.00
2018-06-11T00:46:54.236Z,18.00
2018-06-11T00:49:23.682Z,18.00
2018-06-11T00:51:53.103Z,17.90
2018-06-11T00:54:22.567Z,17.90
2018-06-11T00:56:52.097Z,17.90
2018-06-11T00:59:21.543Z,18.00
2018-06-11T01:01:50.952Z,18.00
2018-06-11T01:04:20.497Z,17.90
2018-06-11T01:06:50.073Z,17.90
2018-06-11T01:09:19.507Z,17.90
2018-06-11T01:11:48.936Z,17.90
2018-06-11T01:14:19.114Z,17.90
2018-06-11T01:16:48.668Z,17.80
2018-06-11T01:19:18.109Z,17.80
2018-06-11T01:21:47.509Z,17.80
2018-06-11T01:24:17.047Z,17.70
2018-06-11T01:26:46.480Z,17.60
2018-06-11T01:29:15.903Z,17.60
2018-06-11T01:31:45.385Z,17.60
2018-06-11T01:34:14.891Z,17.60
2018-06-11T01:36:44.311Z,17.50
2018-06-11T01:39:13.723Z,17.50
2018-06-11T01:41:43.171Z,17.50
2018-06-11T01:44:12.640Z,17.50
2018-06-11T01:46:42.059Z,17.40
2018-06-11T01:49:11.485Z,17.40
2018-06-11T01:51:40.961Z,17.30
2018-06-11T01:54:10.379Z,17.30
2018-06-11T01:56:39.849Z,17.30
2018-06-11T01:59:09.395Z,17.30
2018-06-11T02:01:38.803Z,17.20
2018-06-11T02:04:08.213Z,17.20
2018-06-11T02:06:37.672Z,17.10
2018-06-11T02:09:08.610Z,17.10
2018-06-11T02:11:38.115Z,17.10
2018-06-11T02:14:07.547Z,17.10
2018-06-11T02:16:36.945Z,17.00
2018-06-11T02:19:06.467Z,17.00
2018-06-11T02:21:35.914Z,17.00
2018-06-11T02:24:05.337Z,16.90
2018-06-11T02:26:34.772Z,16.90
2018-06-11T02:29:04.258Z,16.90
2018-06-11T02:31:33.690Z,16.80
2018-06-11T02:34:03.187Z,16.80
2018-06-11T02:36:32.640Z,16.80
2018-06-11T02:39:02.099Z,16.70
2018-06-11T02:41:31.483Z,16.70
2018-06-11T02:44:00.892Z,16.70
2018-06-11T02:46:30.405Z,16.60
2018-06-11T02:48:59.883Z,16.50
2018-06-11T02:51:29.394Z,16.50
2018-06-11T02:53:58.835Z,16.50
2018-06-11T02:56:28.317Z,16.40
2018-06-11T02:58:57.735Z,16.40
2018-06-11T03:01:27.284Z,16.40
2018-06-11T03:03:56.746Z,16.40
2018-06-11T03:06:26.153Z,16.30
2018-06-11T03:08:55.536Z,16.30
2018-06-11T03:11:24.974Z,16.30
2018-06-11T03:13:54.487Z,16.30
2018-06-11T03:16:23.953Z,16.30
2018-06-11T03:18:53.358Z,16.30
2018-06-11T03:21:22.850Z,16.20
2018-06-11T03:23:52.337Z,16.20
2018-06-11T03:26:21.764Z,16.20
2018-06-11T03:28:51.198Z,16.20
2018-06-11T03:31:20.655Z,16.20
2018-06-11T03:33:50.149Z,16.20
2018-06-11T03:36:19.563Z,16.20
2018-06-11T03:38:49.015Z,16.10
2018-06-11T03:41:18.417Z,16.10
2018-06-11T03:43:47.859Z,16.10
2018-06-11T03:46:17.427Z,16.00
2018-06-11T03:48:47.286Z,16.00
2018-06-11T03:51:16.784Z,16.00
2018-06-11T03:53:46.224Z,16.00
2018-06-11T03:56:15.695Z,16.00
2018-06-11T03:58:45.144Z,16.00
2018-06-11T04:01:14.603Z,16.00
2018-06-11T04:03:44.027Z,16.00
2018-06-11T04:06:13.457Z,16.00
2018-06-11T04:08:42.969Z,16.00
2018-06-11T04:11:12.446Z,16.00
2018-06-11T04:13:41.801Z,16.00
2018-06-11T04:16:11.297Z,16.00
2018-06-11T04:18:40.744Z,16.00
2018-06-11T04:21:10.172Z,16.10
2018-06-11T04:23:39.607Z,16.20
2018-06-11T04:26:09.090Z,16.20
2018-06-11T04:28:38.559Z,16.30
2018-06-11T04:31:07.964Z,16.40
2018-06-11T04:33:37.374Z,16.50
2018-06-11T04:36:06.938Z,16.60
2018-06-11T04:38:36.373Z,16.70
2018-06-11T04:41:05.892Z,16.80
2018-06-11T04:43:35.537Z,16.90
2018-06-11T04:46:05.225Z,17.00
2018-06-11T04:48:34.692Z,17.10
2018-06-11T04:53:33.344Z,17.20
2018-06-11T04:56:02.847Z,17.20
2018-06-11T04:58:32.263Z,17.20
2018-06-11T05:01:01.730Z,17.20
2018-06-11T05:03:31.294Z,17.30
2018-06-11T05:06:00.785Z,17.40
2018-06-11T05:08:30.204Z,17.50
2018-06-11T05:10:59.762Z,17.60
2018-06-11T05:13:29.212Z,17.60
2018-06-11T05:16:01.115Z,17.70
2018-06-11T05:18:30.600Z,17.80
2018-06-11T05:21:00.080Z,17.80
2018-06-11T05:23:29.606Z,17.80
2018-06-11T05:25:59.147Z,17.90
2018-06-11T05:28:28.630Z,17.90
2018-06-11T05:30:58.036Z,17.90
2018-06-11T05:33:27.619Z,17.90
2018-06-11T05:35:57.184Z,17.80
2018-06-11T05:38:26.577Z,17.80
2018-06-11T05:40:56.111Z,17.80
2018-06-11T05:43:25.606Z,17.90
2018-06-11T05:45:55.019Z,17.90
2018-06-11T05:48:24.433Z,17.90
2018-06-11T05:50:54.200Z,17.90
2018-06-11T05:53:23.678Z,18.00
2018-06-11T05:55:53.103Z,18.00
2018-06-11T05:58:22.503Z,17.90
2018-06-11T06:00:51.973Z,17.90
2018-06-11T06:03:21.536Z,17.90
2018-06-11T06:05:50.954Z,17.90
2018-06-11T06:08:20.487Z,17.90
2018-06-11T06:10:50.090Z,17.90
2018-06-11T06:13:19.517Z,17.90
2018-06-11T06:15:48.971Z,18.00
2018-06-11T06:18:18.595Z,18.00
2018-06-11T06:20:48.040Z,18.00
2018-06-11T06:23:17.524Z,17.90
2018-06-11T06:25:47.051Z,18.00
2018-06-11T06:28:16.493Z,18.10
2018-06-11T06:30:45.962Z,18.10
2018-06-11T06:35:44.547Z,18.10
2018-06-11T06:38:14.052Z,18.10
2018-06-11T06:40:43.465Z,18.20
2018-06-11T06:43:12.886Z,18.20
2018-06-11T06:45:42.403Z,18.20
2018-06-11T06:48:11.959Z,18.30
2018-06-11T06:50:41.423Z,18.40
2018-06-11T06:53:10.878Z,18.50
2018-06-11T06:55:40.445Z,18.60
2018-06-11T06:58:09.930Z,18.70
2018-06-11T07:00:39.823Z,18.80
2018-06-11T07:03:09.333Z,18.90
2018-06-11T07:05:38.915Z,18.80
2018-06-11T07:08:08.540Z,18.80
2018-06-11T07:10:37.989Z,18.70
2018-06-11T07:13:07.586Z,18.80
2018-06-11T07:15:37.024Z,18.90
2018-06-11T07:18:06.459Z,19.00
2018-06-11T07:20:35.889Z,19.20
2018-06-11T07:23:05.423Z,19.40
2018-06-11T07:25:34.932Z,19.60
2018-06-11T07:30:33.637Z,19.60
2018-06-11T07:33:03.268Z,19.80
2018-06-11T07:35:32.687Z,20.00
2018-06-11T07:38:02.114Z,20.10
2018-06-11T07:40:31.644Z,20.10
2018-06-11T07:43:01.666Z,20.00
2018-06-11T07:45:31.169Z,19.90
2018-06-11T07:48:00.608Z,19.70
2018-06-11T07:50:30.167Z,19.60
2018-06-11T07:52:59.617Z,19.50
2018-06-11T07:55:29.051Z,19.50
2018-06-11T07:57:58.492Z,19.50
2018-06-11T08:00:28.026Z,19.70
2018-06-11T08:02:57.488Z,19.80
2018-06-11T08:05:26.924Z,20.00
2018-06-11T08:07:56.374Z,20.10
2018-06-11T08:10:25.969Z,20.30
2018-06-11T08:12:55.373Z,20.40
2018-06-11T08:15:24.775Z,20.60
2018-06-11T08:17:54.264Z,20.80
2018-06-11T08:20:23.869Z,21.10
2018-06-11T08:22:53.304Z,21.30
2018-06-11T08:25:22.780Z,21.50
2018-06-11T08:27:52.319Z,21.70
2018-06-11T08:30:21.781Z,21.80
2018-06-11T08:32:51.231Z,22.00
2018-06-11T08:35:20.711Z,22.30
2018-06-11T08:37:50.314Z,22.40
2018-06-11T08:40:19.737Z,22.50
2018-06-11T08:42:49.155Z,22.60
2018-06-11T08:45:18.672Z,22.70
2018-06-11T08:47:48.228Z,22.90
2018-06-11T08:50:17.666Z,22.90
2018-06-11T08:52:47.172Z,23.00
2018-06-11T08:55:16.687Z,23.20
2018-06-11T08:57:46.244Z,23.40
2018-06-11T09:00:15.704Z,23.50
2018-06-11T09:02:45.307Z,23.60
2018-06-11T09:05:14.897Z,23.60
2018-06-11T09:07:44.371Z,23.40
2018-06-11T09:10:13.800Z,23.30
2018-06-11T09:12:43.587Z,23.10
2018-06-11T09:15:13.120Z,23.00
2018-06-11T09:17:42.575Z,23.10
2018-06-11T09:20:12.033Z,23.10
2018-06-11T09:22:41.593Z,23.20
2018-06-11T09:25:11.200Z,23.40
2018-06-11T09:27:40.662Z,23.70
2018-06-11T09:30:10.120Z,23.90
2018-06-11T09:32:39.685Z,24.10
2018-06-11T09:35:09.167Z,24.20
2018-06-11T09:37:38.605Z,24.30
2018-06-11T09:40:08.069Z,24.40
2018-06-11T09:42:37.558Z,24.40
2018-06-11T09:45:07.031Z,24.40
2018-06-11T09:47:36.462Z,24.10
2018-06-11T09:50:06.023Z,24.00
2018-06-11T09:52:35.536Z,24.10
2018-06-11T09:55:05.012Z,24.10
2018-06-11T09:57:34.498Z,24.20
2018-06-11T10:02:33.221Z,24.70
2018-06-11T10:05:02.685Z,25.00
2018-06-11T10:07:32.314Z,25.20
2018-06-11T10:10:01.941Z,25.30
2018-06-11T10:12:31.435Z,25.40
2018-06-11T10:15:00.883Z,25.50
2018-06-11T10:17:30.455Z,25.50
2018-06-11T10:19:59.993Z,25.70
2018-06-11T10:22:29.434Z,25.80
2018-06-11T10:24:58.998Z,25.90
2018-06-11T10:27:28.598Z,26.10
2018-06-11T10:29:58.077Z,26.40
2018-06-11T10:32:27.494Z,26.60
2018-06-11T10:34:56.992Z,26.70
2018-06-11T10:37:26.465Z,26.90
2018-06-11T10:39:55.930Z,27.00
2018-06-11T10:42:25.428Z,27.10
2018-06-11T10:44:55.077Z,27.40
2018-06-11T10:47:24.608Z,27.60
2018-06-11T10:49:54.036Z,27.70
2018-06-11T10:52:23.539Z,27.80
2018-06-11T10:54:53.128Z,27.90
2018-06-11T10:57:22.918Z,27.90
2018-06-11T10:59:52.353Z,27.90
2018-06-11T11:02:21.986Z,27.90
2018-06-11T11:04:52.165Z,28.20
2018-06-11T11:07:21.680Z,28.30
2018-06-11T11:09:51.080Z,28.50
2018-06-11T11:12:20.569Z,28.80
2018-06-11T11:14:50.084Z,28.90
2018-06-11T11:17:19.496Z,29.10
2018-06-11T11:19:48.974Z,29.30
2018-06-11T11:22:18.497Z,29.30
2018-06-11T11:24:47.995Z,29.10
2018-06-11T11:27:17.457Z,28.80
2018-06-11T11:29:46.942Z,28.70
2018-06-11T11:32:16.412Z,28.70
2018-06-11T11:34:45.940Z,28.90
2018-06-11T11:37:15.333Z,29.20
2018-06-11T11:39:44.803Z,29.30
2018-06-11T11:42:14.348Z,29.60
2018-06-11T11:44:43.755Z,29.60
2018-06-11T11:47:13.206Z,29.90
2018-06-11T11:49:42.679Z,30.10
2018-06-11T11:52:12.196Z,30.10
2018-06-11T11:54:41.646Z,30.30
2018-06-11T11:57:11.109Z,30.70
2018-06-11T11:59:40.645Z,31.10
2018-06-11T12:02:10.233Z,31.50
2018-06-11T12:04:39.648Z,31.70
2018-06-11T12:07:09.078Z,32.10
2018-06-11T12:12:07.828Z,32.50
2018-06-11T12:14:37.314Z,32.90
2018-06-11T12:17:07.011Z,33.10
2018-06-11T12:19:36.550Z,33.20
2018-06-11T12:22:05.963Z,33.40
2018-06-11T12:24:35.474Z,33.90
2018-06-11T12:27:05.534Z,34.20
2018-06-11T12:29:34.934Z,34.50
2018-06-11T12:32:04.459Z,34.50
2018-06-11T12:34:33.922Z,34.40
2018-06-11T12:37:03.503Z,34.60
2018-06-11T12:39:33.025Z,34.70
2018-06-11T12:42:02.444Z,35.00
2018-06-11T12:44:31.974Z,35.40
2018-06-11T12:47:03.177Z,35.70
2018-06-11T12:49:32.657Z,35.80
2018-06-11T12:52:02.096Z,35.90
2018-06-11T12:54:31.546Z,35.80
2018-06-11T12:57:01.324Z,35.80
2018-06-11T12:59:30.733Z,35.90
2018-06-11T13:02:00.164Z,36.30
2018-06-11T13:04:29.650Z,36.30
2018-06-11T13:07:00.183Z,36.50
2018-06-11T13:09:29.666Z,36.50
2018-06-11T13:11:59.047Z,36.20
2018-06-11T13:14:28.537Z,35.60
2018-06-11T13:16:58.141Z,35.40
2018-06-11T13:19:27.568Z,35.30
2018-06-11T13:21:57.022Z,34.50
2018-06-11T13:24:26.472Z,33.90
2018-06-11T13:26:56.057Z,33.60
2018-06-11T13:29:25.471Z,32.90
2018-06-11T13:31:55.006Z,32.40
2018-06-11T13:34:24.497Z,32.30
2018-06-11T13:36:53.992Z,32.00
2018-06-11T13:39:23.412Z,31.80
2018-06-11T13:41:52.883Z,31.90
2018-06-11T13:44:22.426Z,32.30
2018-06-11T13:46:51.977Z,32.50
2018-06-11T13:49:22.247Z,33.10
2018-06-11T13:51:51.721Z,33.50
2018-06-11T13:54:21.206Z,33.50
2018-06-11T13:56:50.731Z,33.80
2018-06-11T13:59:20.221Z,33.80
2018-06-11T14:01:49.871Z,33.70
2018-06-11T14:04:19.470Z,33.20
2018-06-11T14:06:49.108Z,32.90
2018-06-11T14:12:02.611Z,32.70
2018-06-11T14:14:32.216Z,32.90
2018-06-11T14:17:01.715Z,32.90
2018-06-11T14:19:31.291Z,33.10
2018-06-11T14:22:00.822Z,33.30
2018-06-11T14:24:30.305Z,34.20
2018-06-11T14:26:59.871Z,35.30
2018-06-11T14:29:29.283Z,36.50
2018-06-11T14:31:58.909Z,38.00
2018-06-11T14:34:28.435Z,39.20
2018-06-11T14:36:57.872Z,39.00
2018-06-11T14:39:27.400Z,38.40
2018-06-11T14:41:56.900Z,38.00
2018-06-11T14:44:26.436Z,37.30
2018-06-11T14:46:55.978Z,36.90
2018-06-11T14:49:25.502Z,36.70
2018-06-11T14:51:54.951Z,35.70
2018-06-11T14:54:24.429Z,34.60
2018-06-11T14:56:53.860Z,33.50
2018-06-11T14:59:23.293Z,32.20
2018-06-11T15:01:52.743Z,31.20
2018-06-11T15:04:22.207Z,30.60
2018-06-11T15:06:51.691Z,30.00
2018-06-11T15:09:21.311Z,29.60
2018-06-11T15:11:50.946Z,29.20
2018-06-11T15:14:20.398Z,28.90
2018-06-11T15:16:49.814Z,28.50
2018-06-11T15:19:19.248Z,28.20
2018-06-11T15:21:49.076Z,28.00
2018-06-11T15:24:18.483Z,27.70
2018-06-11T15:26:48.008Z,27.50
2018-06-11T15:29:17.482Z,27.30
2018-06-11T15:31:46.921Z,27.20
2018-06-11T15:34:16.363Z,27.00
2018-06-11T15:36:45.866Z,26.90
2018-06-11T15:39:15.335Z,26.70
2018-06-11T15:41:44.850Z,26.50
2018-06-11T15:44:14.453Z,26.40
2018-06-11T15:46:43.984Z,26.20
2018-06-11T15:49:13.576Z,26.20
2018-06-11T15:51:43.078Z,26.10
2018-06-11T15:54:12.533Z,25.90
2018-06-11T15:56:42.057Z,25.80
2018-06-11T15:59:11.529Z,25.60
2018-06-11T16:01:40.983Z,25.50
2018-06-11T16:04:10.471Z,25.40
2018-06-11T16:06:39.964Z,25.30
2018-06-11T16:09:09.560Z,25.30
2018-06-11T16:11:39.408Z,25.30
2018-06-11T16:14:09.461Z,25.30
2018-06-11T16:16:39.018Z,25.30
2018-06-11T16:19:08.523Z,25.20
2018-06-11T16:21:37.988Z,25.20
2018-06-11T16:24:07.551Z,25.10
2018-06-11T16:26:37.176Z,25.00
2018-06-11T16:29:06.947Z,24.80
2018-06-11T16:31:36.354Z,24.80
2018-06-11T16:34:05.821Z,24.80
2018-06-11T16:36:35.332Z,24.70
2018-06-11T16:39:07.632Z,24.60
2018-06-11T16:41:37.066Z,24.50
2018-06-11T16:44:06.551Z,24.40
2018-06-11T16:46:36.101Z,24.30
2018-06-11T16:49:05.809Z,24.20
2018-06-11T16:51:35.336Z,24.20
2018-06-11T16:54:04.768Z,24.20
2018-06-11T16:56:35.320Z,24.20
2018-06-11T16:59:04.844Z,24.10
2018-06-11T17:01:34.275Z,24.10
2018-06-11T17:04:03.706Z,24.00
2018-06-11T17:06:33.254Z,24.10
2018-06-11T17:09:02.807Z,24.10
2018-06-11T17:11:32.639Z,24.00
2018-06-11T17:14:02.062Z,24.00
2018-06-11T17:16:31.576Z,24.00
2018-06-11T17:19:01.311Z,23.90
2018-06-11T17:21:30.714Z,23.90
2018-06-11T17:24:00.214Z,23.90
2018-06-11T17:26:29.758Z,23.80
2018-06-11T17:28:59.246Z,23.80
2018-06-11T17:31:28.643Z,23.70
2018-06-11T17:33:58.112Z,23.70
2018-06-11T17:36:27.710Z,23.70
2018-06-11T17:38:57.194Z,23.60
2018-06-11T17:41:26.631Z,23.50
2018-06-11T17:43:56.078Z,23.50
2018-06-11T17:46:25.539Z,23.50
2018-06-11T17:51:24.192Z,23.40
2018-06-11T17:53:53.645Z,23.40
2018-06-11T17:56:23.185Z,23.40
2018-06-11T17:58:52.640Z,23.30
2018-06-11T18:01:22.211Z,23.20
2018-06-11T18:03:51.795Z,23.20
2018-06-11T18:06:21.235Z,23.10
2018-06-11T18:08:50.677Z,23.10
2018-06-11T18:11:20.171Z,23.00
2018-06-11T18:13:49.623Z,22.90
2018-06-11T18:16:19.088Z,22.90
2018-06-11T18:18:48.579Z,22.80
2018-06-11T18:21:17.993Z,22.70
2018-06-11T18:23:47.432Z,22.70
2018-06-11T18:26:16.914Z,22.70
2018-06-11T18:28:46.414Z,22.60
2018-06-11T18:31:15.935Z,22.60
2018-06-11T18:33:45.379Z,22.50
2018-06-11T18:36:14.915Z,22.50
2018-06-11T18:38:44.508Z,22.40
2018-06-11T18:41:14.018Z,22.40
2018-06-11T18:43:43.457Z,22.40
2018-06-11T18:46:12.998Z,22.30
2018-06-11T18:48:42.520Z,22.30
2018-06-11T18:51:11.954Z,22.30
2018-06-11T18:53:41.400Z,22.20
2018-06-11T18:56:11.052Z,22.20
2018-06-11T18:58:40.593Z,22.10
2018-06-11T19:03:40.068Z,22.00
2018-06-11T19:06:09.728Z,22.00
2018-06-11T19:08:39.327Z,21.90
2018-06-11T19:11:08.897Z,21.90
2018-06-11T19:13:38.349Z,21.80
2018-06-11T19:16:07.895Z,21.80
2018-06-11T19:18:37.355Z,21.70
2018-06-11T19:23:36.230Z,21.60
2018-06-11T19:26:05.909Z,21.50
2018-06-11T19:28:35.445Z,21.50
2018-06-11T19:31:05.031Z,21.40
2018-06-11T19:33:34.550Z,21.40
2018-06-11T19:36:04.155Z,21.30
2018-06-11T19:38:33.624Z,21.40
2018-06-11T19:41:03.579Z,21.40
2018-06-11T19:43:33.289Z,21.30
2018-06-11T19:46:02.719Z,21.30
2018-06-11T19:48:33.353Z,21.30
2018-06-11T19:51:02.927Z,21.20
2018-06-11T19:53:32.915Z,21.20
2018-06-11T19:56:02.431Z,21.20
2018-06-11T19:58:31.946Z,21.10
2018-06-11T20:01:01.463Z,21.10
2018-06-11T20:03:31.062Z,21.10
2018-06-11T20:06:00.701Z,21.10
2018-06-11T20:08:30.620Z,21.00
2018-06-11T20:11:00.679Z,21.00
2018-06-11T20:13:30.246Z,20.90
2018-06-11T20:15:59.906Z,20.90
2018-06-11T20:18:29.595Z,20.90
2018-06-11T20:20:59.734Z,20.90
2018-06-11T20:23:32.324Z,20.80
2018-06-11T20:26:01.841Z,20.80
2018-06-11T20:31:08.994Z,20.70
2018-06-11T20:33:38.648Z,20.70
2018-06-11T20:36:08.234Z,20.70
2018-06-11T20:38:37.646Z,20.70
2018-06-11T20:41:07.269Z,20.60
2018-06-11T20:43:36.756Z,20.60
2018-06-11T20:46:06.200Z,20.60
2018-06-11T20:48:35.681Z,20.60
2018-06-11T20:51:06.072Z,20.60
2018-06-11T20:53:35.753Z,20.50
2018-06-11T20:56:05.239Z,20.50
2018-06-11T20:58:34.675Z,20.50
2018-06-11T21:01:04.313Z,20.50
2018-06-11T21:03:33.949Z,20.50
2018-06-11T21:06:03.470Z,20.50
2018-06-11T21:08:32.997Z,20.40
2018-06-11T21:11:02.543Z,20.40
2018-06-11T21:13:32.590Z,20.40
2018-06-11T21:16:02.101Z,20.30
2018-06-11T21:18:31.528Z,20.30
2018-06-11T21:21:01.115Z,20.30
2018-06-11T21:23:30.549Z,20.30
2018-06-11T21:25:59.988Z,20.20
2018-06-11T21:28:29.451Z,20.20
2018-06-11T21:30:59.048Z,20.20
2018-06-11T21:33:28.509Z,20.10
2018-06-11T21:35:58.045Z,20.00
2018-06-11T21:38:27.524Z,19.90
2018-06-11T21:40:57.057Z,19.90
2018-06-11T21:43:26.602Z,19.90
2018-06-11T21:45:56.180Z,19.80
2018-06-11T21:48:25.826Z,19.70
2018-06-11T21:50:55.344Z,19.70
2018-06-11T21:53:24.800Z,19.60
2018-06-11T21:55:54.363Z,19.50
2018-06-11T21:58:23.822Z,19.50
2018-06-11T22:00:53.372Z,19.40
2018-06-11T22:03:22.951Z,19.30
2018-06-11T22:05:52.412Z,19.30
2018-06-11T22:08:22.023Z,19.20
2018-06-11T22:10:51.598Z,19.20
2018-06-11T22:13:20.987Z,19.10
2018-06-11T22:15:50.559Z,19.10
2018-06-11T22:18:20.123Z,19.10
2018-06-11T22:20:49.530Z,19.10
2018-06-11T22:23:18.953Z,19.00
2018-06-11T22:25:48.445Z,19.00
2018-06-11T22:28:18.037Z,19.00
2018-06-11T22:30:47.493Z,19.00
2018-06-11T22:33:17.129Z,19.00
2018-06-11T22:35:46.579Z,19.00
2018-06-11T22:38:15.999Z,18.90
2018-06-11T22:40:45.423Z,18.90
2018-06-11T22:43:15.023Z,18.90
2018-06-11T22:45:44.569Z,18.90
2018-06-11T22:48:14.090Z,18.90
2018-06-11T22:50:43.536Z,18.80
2018-06-11T22:53:13.183Z,18.80
2018-06-11T22:55:42.658Z,18.70
2018-06-11T22:58:12.234Z,18.70
2018-06-11T23:00:41.751Z,18.60
2018-06-11T23:03:11.298Z,18.60
2018-06-11T23:05:40.709Z,18.50
2018-06-11T23:08:10.259Z,18.40
2018-06-11T23:10:39.786Z,18.30
2018-06-11T23:13:09.271Z,18.30
2018-06-11T23:15:38.720Z,18.30
2018-06-11T23:18:08.203Z,18.20
2018-06-11T23:20:37.692Z,18.20
2018-06-11T23:23:07.255Z,18.20
2018-06-11T23:25:36.670Z,18.10
2018-06-11T23:28:07.237Z,18.10
2018-06-11T23:30:36.802Z,18.10
2018-06-11T23:33:06.478Z,18.10
2018-06-11T23:35:35.969Z,18.00
2018-06-11T23:38:05.414Z,18.00
2018-06-11T23:40:34.959Z,17.90
2018-06-11T23:51:56.594Z,17.90
2018-06-11T23:54:26.165Z,17.90
2018-06-11T23:56:55.683Z,17.90
2018-06-11T23:59:25.162Z,17.90
